Time;durP1;ratioP1;P1;durP2;ratioP2;P2;SDS_P1;SDS_P2;PMS_P1;PMS_P2;Temp;Humidity;BMP_temperature;BMP_pressure;BME280_temperature;BME280_humidity;BME280_pressure;Samples;Min_cycle;Max_cycle;Signal;HPM_P1;HPM_P2
2022/03/22 00:00:46;;;;;;;;;;;11.40;70.00;;;;;;5079126;28;20421;-77
2022/03/22 00:03:14;;;;;;;;;;;11.40;70.00;;;;;;5078789;28;19913;-77
2022/03/22 00:05:42;;;;;;;;;;;11.30;69.90;;;;;;5079029;28;19908;-77
2022/03/22 00:08:11;;;;;;;;;;;11.30;70.00;;;;;;5078555;28;19974;-77
2022/03/22 00:10:37;;;;;;;;;;;11.20;69.80;;;;;;5078319;28;19996;-77
2022/03/22 00:13:05;;;;;;;;;;;11.20;69.80;;;;;;5078436;28;19909;-77
2022/03/22 00:15:31;;;;;;;;;;;11.10;70.00;;;;;;5078732;28;19978;-76
2022/03/22 00:17:57;;;;;;;;;;;11.10;70.00;;;;;;5078434;28;19913;-76
2022/03/22 00:20:23;;;;;;;;;;;11.00;70.20;;;;;;5060901;28;19916;-76
2022/03/22 00:22:49;;;;;;;;;;;11.00;70.30;;;;;;5078349;28;19962;-76
2022/03/22 00:25:16;;;;;;;;;;;10.90;70.10;;;;;;5078069;28;19913;-76
2022/03/22 00:27:56;;;;;;;;;;;10.90;70.30;;;;;;5078434;28;19916;-77
2022/03/22 00:30:25;;;;;;;;;;;10.80;70.50;;;;;;5078281;28;19917;-77
2022/03/22 00:32:53;;;;;;;;;;;10.80;70.70;;;;;;5078339;28;19908;-77
2022/03/22 00:35:20;;;;;;;;;;;10.70;70.90;;;;;;5064455;28;20440;-77
2022/03/22 00:37:46;;;;;;;;;;;10.70;71.00;;;;;;5078576;28;19916;-77
2022/03/22 00:40:22;;;;;;;;;;;10.70;71.40;;;;;;5076698;28;19912;-76
2022/03/22 00:42:48;;;;;;;;;;;10.70;72.40;;;;;;5078232;28;21247;-77
2022/03/22 00:45:16;;;;;;;;;;;10.60;71.90;;;;;;5077871;28;20011;-77
2022/03/22 00:47:42;;;;;;;;;;;10.60;71.70;;;;;;5078121;28;19916;-77
2022/03/22 00:50:08;;;;;;;;;;;10.60;71.30;;;;;;5077943;28;19912;-76
2022/03/22 00:52:35;;;;;;;;;;;10.50;71.30;;;;;;5078087;28;19941;-77
2022/03/22 00:55:04;;;;;;;;;;;10.50;71.10;;;;;;5077477;28;19999;-77
2022/03/22 00:57:29;;;;;;;;;;;10.40;71.00;;;;;;5078201;28;19909;-76
2022/03/22 01:00:01;;;;;;;;;;;10.40;71.80;;;;;;5077696;28;19938;-77
2022/03/22 01:02:27;;;;;;;;;;;10.40;72.90;;;;;;5077955;28;19912;-76
2022/03/22 01:04:52;;;;;;;;;;;10.40;73.00;;;;;;5077885;28;20369;-76
2022/03/22 01:07:18;;;;;;;;;;;10.30;72.60;;;;;;5078103;28;19930;-76
2022/03/22 01:09:44;;;;;;;;;;;10.30;72.10;;;;;;5077282;28;19919;-77
2022/03/22 01:12:10;;;;;;;;;;;10.30;71.70;;;;;;5077733;28;20494;-77
2022/03/22 01:14:35;;;;;;;;;;;10.30;71.80;;;;;;5077636;28;19956;-76
2022/03/22 01:17:01;;;;;;;;;;;10.30;72.40;;;;;;5077984;28;19913;-76
2022/03/22 01:19:27;;;;;;;;;;;10.20;72.00;;;;;;5059803;28;20046;-76
2022/03/22 01:21:54;;;;;;;;;;;10.20;72.80;;;;;;5078001;28;19909;-76
2022/03/22 01:24:20;;;;;;;;;;;10.20;73.30;;;;;;5077222;28;19909;-76
2022/03/22 01:26:46;;;;;;;;;;;10.20;73.60;;;;;;5077554;28;20000;-76
2022/03/22 01:29:12;;;;;;;;;;;10.20;73.60;;;;;;5080350;28;19916;-76
2022/03/22 01:31:37;;;;;;;;;;;10.10;73.10;;;;;;5081906;28;19908;-76
2022/03/22 01:34:03;;;;;;;;;;;10.10;73.20;;;;;;5077725;28;20397;-76
2022/03/22 01:36:31;;;;;;;;;;;10.10;73.40;;;;;;5054262;28;19914;-77
2022/03/22 01:38:57;;;;;;;;;;;10.10;73.70;;;;;;5080726;28;20382;-76
2022/03/22 01:41:24;;;;;;;;;;;10.10;73.60;;;;;;5081393;28;19908;-76
2022/03/22 01:43:49;;;;;;;;;;;10.00;73.60;;;;;;5063532;28;19915;-76
2022/03/22 01:46:16;;;;;;;;;;;10.00;73.60;;;;;;5063362;28;19920;-76
2022/03/22 01:48:42;;;;;;;;;;;10.00;73.60;;;;;;5081364;28;19959;-76
2022/03/22 01:51:09;;;;;;;;;;;9.90;73.30;;;;;;5063518;28;20383;-76
2022/03/22 01:53:35;;;;;;;;;;;9.90;73.00;;;;;;5081162;28;19908;-77
2022/03/22 01:56:01;;;;;;;;;;;9.90;73.20;;;;;;5081363;28;19920;-76
2022/03/22 01:58:27;;;;;;;;;;;9.80;73.10;;;;;;5063376;28;20279;-75
2022/03/22 02:05:51;;;;;;;;;;;9.80;73.00;;;;;;5081222;28;19953;-76
2022/03/22 02:06:28;;;;;;;;;;;9.70;72.70;;;;;;5081163;28;19932;-76
2022/03/22 02:08:54;;;;;;;;;;;9.70;73.50;;;;;;5080691;28;19954;-75
2022/03/22 02:11:20;;;;;;;;;;;9.70;73.00;;;;;;5081055;28;19908;-76
2022/03/22 02:13:45;;;;;;;;;;;9.70;72.90;;;;;;5081039;28;19915;-76
2022/03/22 02:16:11;;;;;;;;;;;9.60;73.40;;;;;;5080850;28;19912;-76
2022/03/22 02:18:37;;;;;;;;;;;9.60;73.40;;;;;;5080932;28;19958;-76
2022/03/22 02:21:03;;;;;;;;;;;9.60;74.20;;;;;;5080785;28;19931;-76
2022/03/22 02:23:47;;;;;;;;;;;9.60;74.00;;;;;;5080724;28;19908;-76
2022/03/22 02:26:13;;;;;;;;;;;9.60;73.60;;;;;;5070224;28;19912;-76
2022/03/22 02:28:41;;;;;;;;;;;9.60;73.40;;;;;;5080718;28;19913;-76
2022/03/22 02:31:07;;;;;;;;;;;9.50;74.20;;;;;;5080693;28;20311;-77
2022/03/22 02:33:33;;;;;;;;;;;9.50;73.40;;;;;;5080610;28;19908;-76
2022/03/22 02:35:58;;;;;;;;;;;9.50;73.80;;;;;;5066819;28;19909;-76
2022/03/22 02:38:24;;;;;;;;;;;9.50;74.90;;;;;;5080467;28;19908;-76
2022/03/22 02:40:49;;;;;;;;;;;9.50;75.30;;;;;;5079146;28;19909;-76
2022/03/22 02:43:16;;;;;;;;;;;9.50;75.10;;;;;;5080646;28;19970;-76
2022/03/22 02:45:41;;;;;;;;;;;9.50;74.20;;;;;;5080157;28;20399;-76
2022/03/22 02:48:07;;;;;;;;;;;9.40;74.00;;;;;;5080466;28;19932;-76
2022/03/22 02:50:33;;;;;;;;;;;9.50;74.00;;;;;;5080415;28;19908;-76
2022/03/22 02:53:00;;;;;;;;;;;9.40;74.00;;;;;;5080331;28;19992;-76
2022/03/22 02:55:26;;;;;;;;;;;9.40;73.80;;;;;;5079806;28;19908;-76
2022/03/22 02:57:52;;;;;;;;;;;9.30;73.80;;;;;;5080345;28;20058;-76
2022/03/22 03:00:17;;;;;;;;;;;9.30;73.80;;;;;;5080145;28;20278;-76
2022/03/22 03:02:50;;;;;;;;;;;9.30;74.40;;;;;;5080271;28;19908;-77
2022/03/22 03:05:16;;;;;;;;;;;9.30;75.10;;;;;;5068033;28;20352;-74
2022/03/22 03:07:42;;;;;;;;;;;9.30;75.20;;;;;;5080130;28;19995;-75
2022/03/22 03:10:08;;;;;;;;;;;9.20;75.20;;;;;;5079812;28;19970;-76
2022/03/22 03:12:34;;;;;;;;;;;9.30;76.20;;;;;;5079702;28;19942;-76
2022/03/22 03:15:00;;;;;;;;;;;9.20;75.20;;;;;;5080036;28;19909;-77
2022/03/22 03:17:26;;;;;;;;;;;9.20;74.40;;;;;;5079884;28;19908;-77
2022/03/22 03:19:52;;;;;;;;;;;9.20;74.90;;;;;;5079988;28;19912;-76
2022/03/22 03:22:18;;;;;;;;;;;9.20;74.90;;;;;;5079794;28;19908;-76
2022/03/22 03:24:43;;;;;;;;;;;9.10;75.10;;;;;;5079559;28;19930;-76
2022/03/22 03:27:09;;;;;;;;;;;9.10;74.70;;;;;;5079538;28;20265;-75
2022/03/22 03:29:34;;;;;;;;;;;9.10;74.90;;;;;;5079631;28;19913;-76
2022/03/22 03:32:00;;;;;;;;;;;9.00;75.20;;;;;;5079420;28;20284;-76
2022/03/22 03:34:26;;;;;;;;;;;9.00;74.80;;;;;;5072459;28;20425;-76
2022/03/22 03:36:51;;;;;;;;;;;9.00;74.70;;;;;;5072965;28;19935;-76
2022/03/22 03:39:17;;;;;;;;;;;8.90;74.90;;;;;;5078070;28;19909;-76
2022/03/22 03:41:56;;;;;;;;;;;8.90;74.90;;;;;;5061267;28;19932;-76
2022/03/22 03:47:07;;;;;;;;;;;8.80;74.90;;;;;;5078975;28;20469;-76
2022/03/22 03:49:37;;;;;;;;;;;8.80;75.70;;;;;;5061196;28;19916;-76
2022/03/22 03:52:04;;;;;;;;;;;8.80;75.40;;;;;;5078713;28;19909;-76
2022/03/22 03:54:30;;;;;;;;;;;8.70;75.20;;;;;;5079140;28;19908;-76
2022/03/22 03:56:55;;;;;;;;;;;8.70;75.20;;;;;;5078894;28;19908;-75
2022/03/22 03:59:21;;;;;;;;;;;8.70;74.80;;;;;;5079150;28;19908;-76
2022/03/22 04:01:47;;;;;;;;;;;8.60;74.50;;;;;;5078792;28;19916;-76
2022/03/22 04:04:12;;;;;;;;;;;8.60;74.60;;;;;;5078926;28;19909;-76
2022/03/22 04:06:38;;;;;;;;;;;8.60;74.30;;;;;;5078932;28;19915;-75
2022/03/22 04:09:04;;;;;;;;;;;8.50;74.60;;;;;;5078606;28;19935;-75
2022/03/22 04:11:29;;;;;;;;;;;8.50;75.10;;;;;;5078761;28;19908;-75
2022/03/22 04:13:55;;;;;;;;;;;8.50;74.60;;;;;;5078765;28;19908;-76
2022/03/22 04:16:20;;;;;;;;;;;8.50;74.40;;;;;;5078591;28;20003;-76
2022/03/22 04:18:46;;;;;;;;;;;8.40;74.30;;;;;;5078712;28;19951;-75
2022/03/22 04:21:12;;;;;;;;;;;8.40;74.10;;;;;;5078477;28;19912;-76
2022/03/22 04:23:38;;;;;;;;;;;8.40;73.80;;;;;;5078459;28;19908;-76
2022/03/22 04:26:04;;;;;;;;;;;8.30;74.10;;;;;;5060348;28;19909;-76
2022/03/22 04:33:58;;;;;;;;;;;8.20;74.90;;;;;;5075272;28;19916;-76
2022/03/22 04:36:23;;;;;;;;;;;8.20;74.40;;;;;;5067918;28;19908;-75
2022/03/22 04:38:49;;;;;;;;;;;8.20;74.80;;;;;;5077948;28;19916;-75
2022/03/22 04:41:15;;;;;;;;;;;8.10;74.80;;;;;;5059174;28;19908;-76
2022/03/22 04:43:40;;;;;;;;;;;8.10;74.70;;;;;;5060120;28;19963;-76
2022/03/22 04:46:07;;;;;;;;;;;8.10;74.70;;;;;;5078071;28;20395;-75
2022/03/22 04:48:33;;;;;;;;;;;8.00;74.70;;;;;;5060084;28;19991;-75
2022/03/22 04:59:11;;;;;;;;;;;7.90;75.80;;;;;;5078342;28;20263;-75
2022/03/22 05:01:37;;;;;;;;;;;7.90;75.80;;;;;;5077786;28;19908;-75
2022/03/22 05:04:02;;;;;;;;;;;7.90;75.90;;;;;;5077026;28;19916;-75
2022/03/22 05:06:28;;;;;;;;;;;7.80;76.00;;;;;;5077601;28;19909;-76
2022/03/22 05:08:54;;;;;;;;;;;7.80;76.10;;;;;;5077383;28;19924;-76
2022/03/22 05:11:20;;;;;;;;;;;7.70;75.70;;;;;;5077614;28;19931;-76
2022/03/22 05:13:46;;;;;;;;;;;7.70;75.40;;;;;;5077888;28;19909;-76
2022/03/22 05:16:12;;;;;;;;;;;7.70;75.40;;;;;;5077620;28;19919;-76
2022/03/22 05:18:37;;;;;;;;;;;7.70;76.00;;;;;;5077811;28;19909;-76
2022/03/22 05:21:04;;;;;;;;;;;7.60;75.80;;;;;;5077619;28;20003;-76
2022/03/22 05:23:31;;;;;;;;;;;7.60;75.80;;;;;;5077739;28;19908;-76
2022/03/22 05:25:56;;;;;;;;;;;7.60;76.00;;;;;;5077428;28;19979;-76
2022/03/22 05:28:22;;;;;;;;;;;7.60;75.90;;;;;;5077488;28;20383;-75
2022/03/22 05:30:48;;;;;;;;;;;7.50;75.80;;;;;;5077472;28;19915;-75
2022/03/22 05:33:13;;;;;;;;;;;7.50;76.00;;;;;;5077795;28;20367;-75
2022/03/22 05:35:39;;;;;;;;;;;7.50;75.80;;;;;;5063986;28;19908;-76
2022/03/22 05:38:05;;;;;;;;;;;7.40;75.70;;;;;;5077428;28;19912;-75
2022/03/22 05:40:30;;;;;;;;;;;7.40;75.50;;;;;;5076327;28;19908;-76
2022/03/22 05:42:56;;;;;;;;;;;7.40;76.00;;;;;;5077603;28;20383;-77
2022/03/22 05:45:23;;;;;;;;;;;7.40;76.20;;;;;;5077242;28;19924;-75
2022/03/22 05:47:49;;;;;;;;;;;7.40;76.40;;;;;;5077474;28;19909;-76
2022/03/22 05:50:15;;;;;;;;;;;7.30;76.00;;;;;;5077314;28;19956;-75
2022/03/22 05:52:42;;;;;;;;;;;7.30;75.70;;;;;;5077513;28;20371;-76
2022/03/22 05:55:07;;;;;;;;;;;7.30;76.10;;;;;;5076937;28;19931;-75
2022/03/22 05:57:33;;;;;;;;;;;7.30;76.20;;;;;;5077416;28;20333;-76
2022/03/22 05:59:59;;;;;;;;;;;7.20;76.00;;;;;;5077179;28;19962;-76
2022/03/22 06:02:24;;;;;;;;;;;7.30;76.00;;;;;;5077431;28;19908;-75
2022/03/22 06:04:50;;;;;;;;;;;7.20;75.90;;;;;;5076620;28;19915;-75
2022/03/22 06:07:19;;;;;;;;;;;7.20;75.70;;;;;;5076201;28;19915;-75
2022/03/22 06:09:46;;;;;;;;;;;7.20;75.50;;;;;;5076653;28;19916;-76
2022/03/22 06:12:14;;;;;;;;;;;7.10;75.40;;;;;;5077350;28;19920;-77
2022/03/22 06:14:41;;;;;;;;;;;7.10;75.20;;;;;;5078765;28;20345;-81
2022/03/22 06:17:06;;;;;;;;;;;7.10;75.40;;;;;;5063440;28;20270;-77
2022/03/22 06:19:32;;;;;;;;;;;7.10;75.50;;;;;;5062828;28;19916;-76
2022/03/22 06:21:57;;;;;;;;;;;7.00;75.50;;;;;;5062898;28;19908;-80
2022/03/22 06:24:23;;;;;;;;;;;7.00;75.30;;;;;;5080325;28;19915;-79
2022/03/22 06:26:49;;;;;;;;;;;7.00;75.20;;;;;;5080720;28;19908;-79
2022/03/22 06:29:14;;;;;;;;;;;7.10;75.60;;;;;;5062662;28;19912;-81
2022/03/22 06:31:40;;;;;;;;;;;7.00;75.50;;;;;;5063145;28;19915;-78
2022/03/22 06:34:06;;;;;;;;;;;7.00;75.50;;;;;;5076201;28;19909;-72
2022/03/22 06:36:31;;;;;;;;;;;7.10;75.40;;;;;;5071131;28;19913;-80
2022/03/22 06:38:57;;;;;;;;;;;7.10;75.60;;;;;;5061699;28;20267;-82
2022/03/22 06:41:23;;;;;;;;;;;7.10;75.90;;;;;;5062170;28;19908;-78
2022/03/22 06:43:49;;;;;;;;;;;7.20;75.60;;;;;;5062390;28;19908;-79
2022/03/22 06:46:14;;;;;;;;;;;7.20;76.00;;;;;;5080167;28;20291;-79
2022/03/22 06:48:40;;;;;;;;;;;7.30;75.90;;;;;;5080168;28;19917;-78
2022/03/22 06:51:06;;;;;;;;;;;7.30;75.80;;;;;;5080456;28;19974;-84
2022/03/22 06:53:31;;;;;;;;;;;7.40;76.00;;;;;;5079859;28;20395;-83
2022/03/22 06:55:58;;;;;;;;;;;7.40;76.00;;;;;;5079597;28;20034;-84
2022/03/22 06:58:24;;;;;;;;;;;7.40;76.20;;;;;;5080038;28;20299;-83
2022/03/22 07:00:54;;;;;;;;;;;7.50;75.70;;;;;;5080393;28;19909;-84
2022/03/22 07:03:19;;;;;;;;;;;7.60;75.70;;;;;;5079756;28;20283;-84
2022/03/22 07:05:45;;;;;;;;;;;7.60;75.70;;;;;;5060933;28;20007;-84
2022/03/22 07:08:12;;;;;;;;;;;7.70;75.80;;;;;;5079502;28;19912;-84
2022/03/22 07:10:38;;;;;;;;;;;7.70;75.50;;;;;;5079909;28;19909;-84
2022/03/22 07:13:05;;;;;;;;;;;7.80;75.60;;;;;;5061746;28;19999;-85
2022/03/22 07:15:37;;;;;;;;;;;7.90;75.40;;;;;;5080042;28;20008;-83
2022/03/22 07:18:05;;;;;;;;;;;7.90;75.40;;;;;;5079662;28;20003;-84
2022/03/22 07:20:31;;;;;;;;;;;8.00;75.30;;;;;;5079691;28;19909;-84
2022/03/22 07:22:57;;;;;;;;;;;8.10;75.10;;;;;;5079660;28;20287;-83
2022/03/22 07:25:22;;;;;;;;;;;8.20;75.00;;;;;;5078623;28;19909;-84
2022/03/22 07:27:49;;;;;;;;;;;8.30;74.80;;;;;;5079533;28;19908;-83
2022/03/22 07:30:15;;;;;;;;;;;8.30;74.50;;;;;;5079402;28;20501;-83
2022/03/22 07:32:42;;;;;;;;;;;8.40;74.20;;;;;;5079562;28;19912;-86
2022/03/22 07:35:11;;;;;;;;;;;8.50;73.80;;;;;;5066731;28;19959;-85
2022/03/22 07:37:37;;;;;;;;;;;8.60;73.70;;;;;;5079000;28;19909;-85
2022/03/22 07:40:07;;;;;;;;;;;8.60;73.50;;;;;;5078831;28;20403;-84
2022/03/22 07:42:34;;;;;;;;;;;8.70;73.30;;;;;;5066336;28;20324;-85
2022/03/22 07:45:01;;;;;;;;;;;8.80;73.10;;;;;;5078996;28;19908;-85
2022/03/22 07:47:28;;;;;;;;;;;8.90;73.20;;;;;;5079570;28;20421;-84
2022/03/22 07:55:22;;;;;;;;;;;9.20;72.50;;;;;;5078986;28;19919;-85
2022/03/22 07:57:47;;;;;;;;;;;9.20;72.00;;;;;;5079184;28;20271;-84
2022/03/22 08:00:13;;;;;;;;;;;9.30;71.60;;;;;;5078830;28;19923;-84
2022/03/22 08:02:55;;;;;;;;;;;9.40;71.40;;;;;;5078963;28;19909;-87
2022/03/22 08:05:21;;;;;;;;;;;9.50;71.10;;;;;;5067541;28;19909;-85
2022/03/22 08:07:47;;;;;;;;;;;9.60;70.90;;;;;;5078768;28;19950;-83
2022/03/22 08:10:13;;;;;;;;;;;9.70;70.50;;;;;;5078420;28;19912;-87
2022/03/22 08:12:40;;;;;;;;;;;9.70;70.30;;;;;;5078673;28;19958;-84
2022/03/22 08:15:06;;;;;;;;;;;9.80;69.60;;;;;;5078735;28;19913;-85
2022/03/22 08:17:31;;;;;;;;;;;9.80;69.50;;;;;;5078625;28;19986;-85
2022/03/22 08:19:57;;;;;;;;;;;9.90;69.60;;;;;;5078684;28;19908;-84
2022/03/22 08:22:23;;;;;;;;;;;10.00;69.50;;;;;;5078410;28;20015;-84
2022/03/22 08:24:49;;;;;;;;;;;10.20;69.00;;;;;;5078259;28;20380;-86
2022/03/22 08:27:15;;;;;;;;;;;10.30;69.00;;;;;;5078474;28;19909;-84
2022/03/22 08:29:40;;;;;;;;;;;10.60;69.40;;;;;;5078431;28;19913;-85
2022/03/22 08:32:09;;;;;;;;;;;11.20;68.90;;;;;;5078312;28;19909;-85
2022/03/22 08:34:38;;;;;;;;;;;11.70;67.50;;;;;;5059969;28;19909;-86
2022/03/22 08:37:05;;;;;;;;;;;12.30;66.00;;;;;;5060094;28;19958;-84
2022/03/22 08:39:30;;;;;;;;;;;12.90;64.70;;;;;;5059083;28;19909;-84
2022/03/22 08:41:56;;;;;;;;;;;13.40;63.10;;;;;;5078179;28;19999;-84
2022/03/22 08:44:21;;;;;;;;;;;13.90;62.80;;;;;;5078180;28;19909;-83
2022/03/22 08:46:51;;;;;;;;;;;14.40;62.90;;;;;;5077980;28;19942;-83
2022/03/22 08:49:17;;;;;;;;;;;14.90;60.90;;;;;;5078096;28;19913;-84
2022/03/22 08:51:43;;;;;;;;;;;15.40;60.50;;;;;;5078105;28;20345;-84
2022/03/22 08:54:09;;;;;;;;;;;15.90;59.00;;;;;;5077631;28;19908;-84
2022/03/22 08:56:35;;;;;;;;;;;16.30;57.10;;;;;;5059890;28;19908;-82
2022/03/22 08:59:00;;;;;;;;;;;16.70;55.10;;;;;;5078066;28;19913;-83
2022/03/22 09:01:27;;;;;;;;;;;17.00;53.50;;;;;;5077898;28;19912;-79
2022/03/22 09:06:38;;;;;;;;;;;17.20;52.50;;;;;;5077731;28;19931;-84
2022/03/22 09:09:05;;;;;;;;;;;17.30;51.90;;;;;;5077495;28;19965;-83
2022/03/22 09:11:31;;;;;;;;;;;17.50;53.30;;;;;;5064656;28;19912;-84
2022/03/22 09:13:56;;;;;;;;;;;17.80;50.80;;;;;;5077706;28;19980;-82
2022/03/22 09:16:22;;;;;;;;;;;18.00;50.60;;;;;;5077855;28;19912;-85
2022/03/22 09:18:48;;;;;;;;;;;18.30;51.70;;;;;;5059551;28;19912;-84
2022/03/22 09:21:14;;;;;;;;;;;18.60;49.70;;;;;;5077773;28;20383;-84
2022/03/22 09:23:40;;;;;;;;;;;18.80;50.70;;;;;;5077581;28;19908;-84
2022/03/22 09:26:06;;;;;;;;;;;19.10;49.50;;;;;;5077583;28;19909;-84
2022/03/22 09:28:32;;;;;;;;;;;19.30;47.50;;;;;;5077600;28;19940;-83
2022/03/22 09:30:58;;;;;;;;;;;19.50;48.30;;;;;;5077685;28;19931;-83
2022/03/22 09:33:23;;;;;;;;;;;19.70;48.30;;;;;;5077628;28;19908;-84
2022/03/22 09:35:49;;;;;;;;;;;20.00;46.90;;;;;;5063890;28;19915;-84
2022/03/22 09:38:15;;;;;;;;;;;20.20;45.90;;;;;;5077413;28;19908;-83
2022/03/22 09:40:41;;;;;;;;;;;20.30;46.90;;;;;;5076399;28;19908;-83
2022/03/22 09:43:08;;;;;;;;;;;20.50;47.90;;;;;;5077731;28;19916;-83
2022/03/22 09:45:33;;;;;;;;;;;20.80;46.60;;;;;;5077158;28;19927;-82
2022/03/22 09:47:59;;;;;;;;;;;21.00;45.90;;;;;;5077684;28;19909;-82
2022/03/22 09:53:12;;;;;;;;;;;21.20;45.20;;;;;;5041322;28;19912;-85
2022/03/22 09:55:37;;;;;;;;;;;21.40;46.10;;;;;;5081466;28;19908;-83
2022/03/22 09:58:03;;;;;;;;;;;21.50;45.10;;;;;;5081382;28;19916;-84
2022/03/22 10:00:29;;;;;;;;;;;21.70;45.00;;;;;;5081362;28;19912;-82
2022/03/22 10:02:55;;;;;;;;;;;21.80;44.20;;;;;;5081230;28;19916;-83
2022/03/22 10:05:22;;;;;;;;;;;22.00;44.30;;;;;;5081467;28;19908;-84
2022/03/22 10:07:58;;;;;;;;;;;22.10;43.80;;;;;;5080844;28;19908;-85
2022/03/22 10:10:24;;;;;;;;;;;22.30;44.10;;;;;;5080912;28;19935;-84
2022/03/22 10:12:55;;;;;;;;;;;22.40;43.30;;;;;;5080921;28;19908;-79
2022/03/22 10:15:27;;;;;;;;;;;22.50;42.20;;;;;;5081196;28;19951;-83
2022/03/22 10:17:59;;;;;;;;;;;22.60;43.70;;;;;;5080795;28;19996;-82
2022/03/22 10:20:25;;;;;;;;;;;22.70;43.90;;;;;;5080987;28;19912;-83
2022/03/22 10:22:58;;;;;;;;;;;22.90;43.50;;;;;;5062695;28;19962;-83
2022/03/22 10:25:24;;;;;;;;;;;23.00;42.60;;;;;;5080629;28;19917;-83
2022/03/22 10:27:54;;;;;;;;;;;23.10;42.70;;;;;;5080813;28;20440;-85
2022/03/22 10:30:20;;;;;;;;;;;23.20;42.90;;;;;;5080535;28;19942;-81
2022/03/22 10:32:53;;;;;;;;;;;23.30;42.90;;;;;;5062867;28;19908;-82
2022/03/22 10:35:20;;;;;;;;;;;23.50;43.40;;;;;;5067160;28;19909;-82
2022/03/22 10:37:47;;;;;;;;;;;23.70;43.60;;;;;;5062445;28;19948;-80
2022/03/22 10:40:30;;;;;;;;;;;23.90;42.70;;;;;;5079237;28;19908;-80
2022/03/22 10:42:58;;;;;;;;;;;24.00;43.30;;;;;;5080727;28;19940;-81
2022/03/22 10:45:28;;;;;;;;;;;24.30;43.10;;;;;;5080172;28;19921;-79
2022/03/22 10:47:54;;;;;;;;;;;24.50;42.20;;;;;;5080758;28;20361;-83
2022/03/22 10:50:20;;;;;;;;;;;24.60;41.50;;;;;;5080365;28;19913;-83
2022/03/22 10:53:12;;;;;;;;;;;24.70;41.40;;;;;;5080566;28;19915;-83
2022/03/22 10:55:38;;;;;;;;;;;24.80;41.90;;;;;;5064607;28;19908;-83
2022/03/22 10:58:04;;;;;;;;;;;24.80;41.00;;;;;;5080307;28;19954;-83
2022/03/22 11:00:30;;;;;;;;;;;24.80;42.10;;;;;;5079301;28;19962;-84
2022/03/22 11:02:56;;;;;;;;;;;24.90;41.30;;;;;;5079889;28;20002;-84
2022/03/22 11:05:24;;;;;;;;;;;24.80;40.90;;;;;;5080119;28;20325;-84
2022/03/22 11:07:50;;;;;;;;;;;24.90;41.30;;;;;;5079790;28;19909;-81
2022/03/22 11:10:17;;;;;;;;;;;24.90;41.50;;;;;;5079815;28;19920;-81
2022/03/22 11:12:43;;;;;;;;;;;25.00;42.40;;;;;;5062071;28;19908;-82
2022/03/22 11:15:09;;;;;;;;;;;25.20;41.60;;;;;;5080129;28;19931;-82
2022/03/22 11:17:35;;;;;;;;;;;25.30;40.60;;;;;;5079759;28;19909;-82
2022/03/22 11:20:06;;;;;;;;;;;25.40;40.00;;;;;;5061892;28;20287;-82
2022/03/22 11:22:32;;;;;;;;;;;25.30;40.20;;;;;;5079632;28;19952;-82
2022/03/22 11:25:11;;;;;;;;;;;25.20;40.80;;;;;;5079462;28;19962;-82
2022/03/22 11:27:37;;;;;;;;;;;25.20;41.10;;;;;;5078349;28;19908;-82
2022/03/22 11:30:03;;;;;;;;;;;25.30;41.00;;;;;;5079573;28;19923;-81
2022/03/22 11:35:14;;;;;;;;;;;25.40;42.10;;;;;;5066132;28;19916;-81
2022/03/22 11:37:40;;;;;;;;;;;25.60;41.50;;;;;;5079266;28;20294;-82
2022/03/22 11:43:00;;;;;;;;;;;25.80;41.10;;;;;;5079703;28;19916;-81
2022/03/22 11:45:26;;;;;;;;;;;25.90;40.90;;;;;;5078954;28;19916;-81
2022/03/22 11:47:54;;;;;;;;;;;26.00;40.30;;;;;;5079429;28;19912;-82
2022/03/22 11:50:21;;;;;;;;;;;25.90;39.80;;;;;;5079025;28;19912;-82
2022/03/22 11:52:51;;;;;;;;;;;25.80;39.70;;;;;;5079119;28;19908;-82
2022/03/22 11:55:18;;;;;;;;;;;25.70;40.10;;;;;;5078775;28;19909;-82
2022/03/22 11:57:43;;;;;;;;;;;25.60;39.60;;;;;;5079288;28;19961;-83
2022/03/22 12:00:11;;;;;;;;;;;25.60;40.00;;;;;;5078918;28;19991;-82
2022/03/22 12:02:41;;;;;;;;;;;25.60;40.30;;;;;;5079061;28;19909;-83
2022/03/22 12:05:07;;;;;;;;;;;25.50;39.60;;;;;;5078823;28;19909;-82
2022/03/22 12:07:38;;;;;;;;;;;25.50;39.90;;;;;;5060876;28;20272;-82
2022/03/22 12:10:07;;;;;;;;;;;25.40;40.30;;;;;;5078490;28;19912;-82
2022/03/22 12:12:34;;;;;;;;;;;25.50;40.80;;;;;;5078161;28;20464;-80
2022/03/22 12:15:00;;;;;;;;;;;25.50;41.00;;;;;;5079015;28;19960;-80
2022/03/22 12:17:27;;;;;;;;;;;25.50;40.00;;;;;;5078539;28;19915;-81
2022/03/22 12:19:56;;;;;;;;;;;25.60;40.90;;;;;;5078919;28;19909;-82
2022/03/22 12:22:23;;;;;;;;;;;25.60;41.00;;;;;;5078375;28;19935;-81
2022/03/22 12:24:49;;;;;;;;;;;25.50;40.80;;;;;;5078243;28;20003;-82
2022/03/22 12:27:16;;;;;;;;;;;25.60;40.10;;;;;;5078190;28;19947;-82
2022/03/22 12:29:42;;;;;;;;;;;25.50;40.40;;;;;;5078480;28;20322;-83
2022/03/22 12:32:12;;;;;;;;;;;25.50;41.80;;;;;;5078031;28;19908;-83
2022/03/22 12:34:39;;;;;;;;;;;25.60;41.90;;;;;;5070038;28;19909;-83
2022/03/22 12:37:08;;;;;;;;;;;25.70;41.50;;;;;;5073461;28;19931;-81
2022/03/22 12:39:37;;;;;;;;;;;25.80;40.00;;;;;;5077049;28;19908;-84
2022/03/22 12:42:03;;;;;;;;;;;25.70;39.70;;;;;;5078126;28;20592;-85
2022/03/22 12:44:29;;;;;;;;;;;25.50;40.00;;;;;;5078250;28;20291;-84
2022/03/22 12:46:55;;;;;;;;;;;25.40;39.30;;;;;;5077820;28;19974;-84
2022/03/22 12:49:21;;;;;;;;;;;25.20;39.80;;;;;;5078331;28;20421;-84
2022/03/22 12:51:49;;;;;;;;;;;25.10;41.20;;;;;;5077221;28;20188;-85
2022/03/22 12:54:17;;;;;;;;;;;24.90;40.10;;;;;;5077680;28;19908;-83
2022/03/22 12:56:47;;;;;;;;;;;24.80;40.00;;;;;;5077957;28;19944;-83
2022/03/22 12:59:22;;;;;;;;;;;24.70;41.60;;;;;;5078074;28;19912;-85
2022/03/22 13:01:53;;;;;;;;;;;24.70;40.60;;;;;;5077874;28;19908;-84
2022/03/22 13:04:22;;;;;;;;;;;24.60;40.10;;;;;;5078069;28;19908;-83
2022/03/22 13:06:49;;;;;;;;;;;24.30;40.40;;;;;;5073957;28;19932;-83
2022/03/22 13:11:59;;;;;;;;;;;23.80;40.90;;;;;;5077960;28;19915;-85
2022/03/22 13:17:09;;;;;;;;;;;23.30;40.80;;;;;;5077987;28;19915;-83
2022/03/22 13:19:37;;;;;;;;;;;23.00;41.30;;;;;;5077694;28;19909;-85
2022/03/22 13:22:03;;;;;;;;;;;22.70;41.70;;;;;;5059979;28;19909;-85
2022/03/22 13:24:31;;;;;;;;;;;22.40;42.00;;;;;;5076447;28;19958;-86
2022/03/22 13:26:57;;;;;;;;;;;22.00;42.20;;;;;;5077519;28;19908;-84
2022/03/22 13:29:24;;;;;;;;;;;21.80;41.90;;;;;;5077677;28;19912;-85
2022/03/22 13:31:56;;;;;;;;;;;21.60;43.00;;;;;;5077726;28;19908;-85
2022/03/22 13:34:23;;;;;;;;;;;21.40;44.50;;;;;;5071109;28;19917;-85
2022/03/22 13:36:49;;;;;;;;;;;21.30;44.20;;;;;;5071127;28;19909;-85
2022/03/22 13:39:24;;;;;;;;;;;21.00;44.20;;;;;;5076264;28;19965;-80
2022/03/22 13:41:49;;;;;;;;;;;20.80;44.50;;;;;;5077494;28;19912;-86
2022/03/22 13:44:28;;;;;;;;;;;20.60;44.40;;;;;;5059550;28;19908;-84
2022/03/22 13:46:54;;;;;;;;;;;20.40;45.10;;;;;;5077353;28;20386;-85
2022/03/22 13:49:20;;;;;;;;;;;20.20;44.70;;;;;;5077757;28;20363;-85
2022/03/22 13:51:47;;;;;;;;;;;20.10;44.40;;;;;;5077443;28;19996;-86
2022/03/22 13:54:14;;;;;;;;;;;19.90;44.30;;;;;;5077030;28;19914;-87
2022/03/22 13:56:40;;;;;;;;;;;19.60;45.20;;;;;;5077381;28;19954;-86
2022/03/22 13:59:09;;;;;;;;;;;19.50;45.10;;;;;;5077477;28;19908;-86
2022/03/22 14:01:35;;;;;;;;;;;19.50;45.60;;;;;;5077363;28;19909;-85
2022/03/22 14:04:00;;;;;;;;;;;19.40;45.50;;;;;;5077759;28;19916;-83
2022/03/22 14:06:26;;;;;;;;;;;19.20;44.90;;;;;;5059078;28;19908;-82
2022/03/22 14:08:52;;;;;;;;;;;19.10;44.80;;;;;;5077009;28;19920;-86
2022/03/22 14:11:18;;;;;;;;;;;19.00;45.10;;;;;;5077184;28;19958;-84
2022/03/22 14:13:43;;;;;;;;;;;18.90;45.30;;;;;;5077580;28;19915;-86
2022/03/22 14:16:09;;;;;;;;;;;18.90;45.60;;;;;;5059093;28;19909;-86
2022/03/22 14:18:35;;;;;;;;;;;18.80;46.30;;;;;;5077352;28;19908;-86
2022/03/22 14:21:00;;;;;;;;;;;18.70;46.80;;;;;;5077171;28;19909;-84
2022/03/22 14:23:26;;;;;;;;;;;18.70;46.50;;;;;;5077181;28;19916;-85
2022/03/22 14:25:52;;;;;;;;;;;18.70;46.30;;;;;;5076869;28;20276;-86
2022/03/22 14:28:17;;;;;;;;;;;18.60;46.60;;;;;;5077071;28;19988;-85
2022/03/22 14:30:43;;;;;;;;;;;18.50;47.40;;;;;;5077146;28;19908;-84
2022/03/22 14:33:10;;;;;;;;;;;18.60;46.90;;;;;;5077211;28;19909;-82
2022/03/22 14:35:56;;;;;;;;;;;18.50;46.80;;;;;;5064933;28;19917;-87
2022/03/22 14:38:22;;;;;;;;;;;18.40;46.80;;;;;;5080443;28;19915;-86
2022/03/22 14:40:48;;;;;;;;;;;18.40;47.60;;;;;;5079492;28;19999;-86
2022/03/22 14:43:14;;;;;;;;;;;18.30;47.40;;;;;;5062658;28;19908;-86
2022/03/22 14:45:43;;;;;;;;;;;18.30;47.40;;;;;;5080214;28;20360;-84
2022/03/22 14:48:09;;;;;;;;;;;18.30;47.80;;;;;;5080432;28;19935;-86
2022/03/22 14:50:36;;;;;;;;;;;18.30;47.60;;;;;;5080564;28;19913;-86
2022/03/22 14:55:48;;;;;;;;;;;18.20;47.90;;;;;;5080487;28;19947;-85
2022/03/22 15:00:58;;;;;;;;;;;18.10;47.80;;;;;;5080352;28;19915;-85
2022/03/22 15:03:26;;;;;;;;;;;18.10;48.80;;;;;;5080135;28;19999;-83
2022/03/22 15:05:52;;;;;;;;;;;18.10;48.70;;;;;;5080078;28;19908;-84
2022/03/22 15:08:20;;;;;;;;;;;18.10;49.20;;;;;;5079696;28;19908;-83